L18 weather

Fallbrook Community Airpark
Fallbrook, California, United States

Public forecast

Using degrees Fahrenheit for public forecast. Weather courtesy of forecast.io.

METAR (pilot weather report)

Closest report is Camp Pendleton MCAS (Munn Field) Airport, 6.1 nm (11.3 km) WSW. Retrieved 2019/06/26 00:55 UTC (23 minutes ago):

KNFG 260055Z 24004KT 10SM OVC021 18/14 A2989 RMK AO2 SLP119 T01780144 $

TAF (pilot weather forecast)

Forecast is more than 12 hours old.

Closest forecast is Mc Clellan-Palomar Airport, 13.6 nm (25.3 km) S. Retrieved 2019/06/25 00:33 UTC (1 day ago):

TAF KCRQ 252330Z 2600/2624 25006KT P6SM OVC013 FM260800 25003KT 5SM BR OVC009 FM262000 26007KT P6SM OVC012